Bodoc, Louisiana
Current Conditions -  °F | °C
As of 12:35 PM on Saturday 25 Oct 2014 (Local Time) from KOPL Reporting Station
Overcast Overcast  
Wind Chill: 77°   Ceiling: 200
Heat Index: 78°   Visibility: 10mi
Dew Point: 53°   Wind: 0mph
Humidity: 43%   Direction: NA
Pressure: 30.15"   Gusts: NA
Location:  30.9227°N, 91.987°W
Report Text: KOPL 251735Z AUTO 00000KT 10SM OVC002 25/12 A3015 RMK AO2 T02500116
Loading
Personal Weather Stations






























Interactive Weather Map
Tropical Storm Tracking
New forecast layout! Learn more

10-Day Weather Forecast

Advertisements
Track Severe Weather on mobile